createdAt,value
2023-03-04T00:00:47.645Z,24.05
2023-03-04T00:02:50.796Z,25.48
2023-03-04T00:04:52.465Z,25.13
2023-03-04T00:06:55.306Z,23.77
2023-03-04T00:08:57.058Z,29.40
2023-03-04T00:10:58.818Z,26.50
2023-03-04T00:13:00.392Z,27.38
2023-03-04T00:15:02.071Z,30.23
2023-03-04T00:17:03.737Z,29.63
2023-03-04T00:19:06.618Z,28.10
2023-03-04T00:21:08.314Z,31.80
2023-03-04T00:23:10.022Z,31.48
2023-03-04T00:25:11.569Z,35.50
2023-03-04T00:27:13.146Z,36.25
2023-03-04T00:29:14.782Z,38.55
2023-03-04T00:31:16.531Z,38.67
2023-03-04T00:33:18.329Z,36.00
2023-03-04T00:35:21.399Z,38.22
2023-03-04T00:37:23.091Z,36.53
2023-03-04T00:39:24.847Z,36.00
2023-03-04T00:41:26.441Z,35.88
2023-03-04T00:43:28.049Z,33.40
2023-03-04T00:45:29.815Z,37.15
2023-03-04T00:47:31.399Z,41.67
2023-03-04T00:49:33.131Z,38.55
2023-03-04T00:51:36.303Z,38.13
2023-03-04T00:53:37.877Z,38.38
2023-03-04T00:55:39.535Z,34.90
2023-03-04T00:57:41.095Z,38.90
2023-03-04T00:59:42.892Z,35.63
2023-03-04T01:01:46.478Z,39.65
2023-03-04T01:03:48.122Z,36.15
2023-03-04T01:05:49.778Z,37.63
2023-03-04T01:07:52.812Z,38.30
2023-03-04T01:09:54.521Z,36.55
2023-03-04T01:11:56.198Z,38.63
2023-03-04T01:13:57.785Z,34.95
2023-03-04T01:15:59.471Z,36.03
2023-03-04T01:18:01.289Z,41.33
2023-03-04T01:20:04.019Z,36.30
2023-03-04T01:22:05.668Z,44.72
2023-03-04T01:24:09.036Z,36.15
2023-03-04T01:26:10.604Z,37.88
2023-03-04T01:28:12.156Z,37.75
2023-03-04T01:30:13.954Z,45.35
2023-03-04T01:32:15.645Z,41.80
2023-03-04T01:34:17.192Z,40.83
2023-03-04T01:36:18.769Z,39.40
2023-03-04T01:38:20.468Z,41.47
2023-03-04T01:40:23.680Z,40.30
2023-03-04T01:42:27.585Z,40.00
2023-03-04T01:44:29.313Z,41.38
2023-03-04T01:46:32.011Z,44.10
2023-03-04T01:48:37.112Z,40.88
2023-03-04T01:50:38.942Z,37.95
2023-03-04T01:52:41.084Z,40.22
2023-03-04T01:54:42.785Z,41.10
2023-03-04T01:56:47.596Z,40.13
2023-03-04T01:59:07.485Z,42.28
2023-03-04T02:01:10.426Z,39.28
2023-03-04T02:05:17.445Z,36.72
2023-03-04T02:07:19.060Z,40.78
2023-03-04T02:09:21.418Z,42.85
2023-03-04T02:11:23.284Z,42.58
2023-03-04T02:13:26.499Z,43.70
2023-03-04T02:15:29.131Z,47.85
2023-03-04T02:17:35.208Z,42.25
2023-03-04T02:19:47.821Z,41.17
2023-03-04T02:21:49.707Z,41.38
2023-03-04T02:23:59.552Z,41.05
2023-03-04T02:26:20.818Z,49.15
2023-03-04T02:28:22.460Z,42.72
2023-03-04T02:30:25.130Z,48.38
2023-03-04T02:32:26.915Z,45.42
2023-03-04T02:34:31.178Z,39.28
2023-03-04T02:36:34.746Z,40.05
2023-03-04T02:38:36.367Z,44.40
2023-03-04T02:40:41.458Z,48.95
2023-03-04T02:42:45.291Z,41.13
2023-03-04T02:44:47.774Z,45.33
2023-03-04T02:46:50.710Z,45.70
2023-03-04T02:48:52.756Z,41.65
2023-03-04T02:50:55.231Z,39.90
2023-03-04T02:52:56.844Z,41.45
2023-03-04T02:54:58.432Z,46.60
2023-03-04T02:57:02.326Z,41.15
2023-03-04T02:59:05.241Z,46.88
2023-03-04T03:01:06.824Z,55.60
2023-03-04T03:03:09.186Z,43.88
2023-03-04T03:05:12.761Z,46.95
2023-03-04T03:07:14.360Z,44.28
2023-03-04T03:09:16.538Z,43.28
2023-03-04T03:11:18.121Z,51.58
2023-03-04T03:13:19.751Z,43.63
2023-03-04T03:15:22.779Z,42.75
2023-03-04T03:17:24.400Z,46.67
2023-03-04T03:19:25.992Z,43.25
2023-03-04T03:21:27.735Z,53.53
2023-03-04T03:23:29.264Z,43.20
2023-03-04T03:25:30.948Z,43.97
2023-03-04T03:27:32.589Z,42.38
2023-03-04T03:29:34.208Z,43.78
2023-03-04T03:31:37.155Z,47.08
2023-03-04T03:33:38.860Z,46.40
2023-03-04T03:35:40.453Z,49.47
2023-03-04T03:37:41.986Z,42.67
2023-03-04T03:39:43.753Z,49.90
2023-03-04T03:41:45.356Z,50.47
2023-03-04T03:43:46.859Z,47.83
2023-03-04T03:45:48.469Z,47.03
2023-03-04T03:47:51.441Z,45.55
2023-03-04T03:49:53.008Z,46.85
2023-03-04T03:51:54.646Z,50.42
2023-03-04T03:53:56.197Z,49.65
2023-03-04T03:55:57.777Z,47.28
2023-03-04T03:57:59.376Z,51.88
2023-03-04T04:00:01.416Z,41.42
2023-03-04T04:02:03.237Z,46.58
2023-03-04T04:04:06.362Z,46.92
2023-03-04T04:06:08.118Z,49.05
2023-03-04T04:08:12.718Z,44.20
2023-03-04T04:10:14.328Z,43.50
2023-03-04T04:12:16.848Z,42.63
2023-03-04T04:14:18.390Z,41.20
2023-03-04T04:16:19.956Z,45.15
2023-03-04T04:18:21.728Z,41.72
2023-03-04T04:20:26.316Z,47.50
2023-03-04T04:22:28.193Z,46.20
2023-03-04T04:24:30.045Z,46.22
2023-03-04T04:26:31.634Z,42.53
2023-03-04T04:28:33.548Z,46.30
2023-03-04T04:30:35.421Z,47.05
2023-03-04T04:32:37.004Z,47.72
2023-03-04T04:34:38.719Z,47.63
2023-03-04T04:36:41.588Z,39.90
2023-03-04T04:38:43.418Z,47.70
2023-03-04T04:40:44.995Z,40.90
2023-03-04T04:42:46.546Z,45.10
2023-03-04T04:44:48.140Z,45.10
2023-03-04T04:46:49.851Z,41.13
2023-03-04T04:48:51.431Z,45.47
2023-03-04T04:51:02.051Z,49.05
2023-03-04T04:53:05.152Z,43.38
2023-03-04T04:55:07.320Z,43.42
2023-03-04T04:57:08.933Z,44.25
2023-03-04T04:59:10.698Z,42.42
2023-03-04T05:01:12.904Z,44.15
2023-03-04T05:03:16.293Z,46.33
2023-03-04T05:05:19.327Z,45.80
2023-03-04T05:07:21.063Z,42.97
2023-03-04T05:09:24.013Z,45.10
2023-03-04T05:11:25.699Z,42.45
2023-03-04T05:13:27.850Z,51.75
2023-03-04T05:15:29.454Z,47.92
2023-03-04T05:17:31.067Z,43.42
2023-03-04T05:19:32.602Z,47.22
2023-03-04T05:21:34.317Z,53.55
2023-03-04T05:23:38.998Z,49.40
2023-03-04T05:25:41.895Z,48.83
2023-03-04T05:27:43.901Z,44.47
2023-03-04T05:29:45.474Z,52.45
2023-03-04T05:31:47.097Z,49.22
2023-03-04T05:33:48.741Z,46.25
2023-03-04T05:35:50.932Z,47.15
2023-03-04T05:37:52.612Z,48.17
2023-03-04T05:39:54.369Z,49.97
2023-03-04T05:41:57.337Z,51.47
2023-03-04T05:43:58.997Z,48.95
2023-03-04T05:46:00.563Z,56.35
2023-03-04T05:48:02.170Z,52.50
2023-03-04T05:50:03.943Z,49.42
2023-03-04T05:52:05.508Z,55.25
2023-03-04T05:54:07.175Z,53.55
2023-03-04T05:56:09.949Z,59.08
2023-03-04T05:58:12.982Z,55.83
2023-03-04T06:00:16.034Z,52.47
2023-03-04T06:02:17.573Z,54.90
2023-03-04T06:04:19.202Z,53.78
2023-03-04T06:06:20.926Z,54.20
2023-03-04T06:08:22.674Z,51.88
2023-03-04T06:10:24.229Z,52.78
2023-03-04T06:12:26.110Z,56.20
2023-03-04T06:14:29.023Z,57.17
2023-03-04T06:16:30.694Z,48.33
2023-03-04T06:18:32.381Z,51.92
2023-03-04T06:20:33.975Z,57.45
2023-03-04T06:22:35.589Z,54.33
2023-03-04T06:24:37.616Z,52.63
2023-03-04T06:26:39.267Z,49.80
2023-03-04T06:28:40.951Z,53.20
2023-03-04T06:30:43.939Z,49.22
2023-03-04T06:32:45.674Z,51.35
2023-03-04T06:34:47.323Z,48.78
2023-03-04T06:36:48.929Z,48.88
2023-03-04T06:38:50.483Z,44.60
2023-03-04T06:40:52.416Z,57.75
2023-03-04T06:42:54.176Z,50.83
2023-03-04T06:44:55.831Z,48.90
2023-03-04T06:46:58.835Z,44.20
2023-03-04T06:49:00.580Z,53.50
2023-03-04T06:51:05.876Z,48.55
2023-03-04T06:53:07.474Z,46.65
2023-03-04T06:55:09.887Z,43.08
2023-03-04T06:57:11.612Z,46.30
2023-03-04T06:59:13.374Z,45.85
2023-03-04T07:01:17.238Z,44.08
2023-03-04T07:03:20.198Z,49.30
2023-03-04T07:05:21.791Z,43.30
2023-03-04T07:07:23.425Z,47.92
2023-03-04T07:09:25.119Z,46.55
2023-03-04T07:11:26.873Z,52.80
2023-03-04T07:13:28.433Z,51.30
2023-03-04T07:15:30.201Z,47.80
2023-03-04T07:17:31.771Z,49.47
2023-03-04T07:19:34.731Z,48.85
2023-03-04T07:21:36.317Z,49.22
2023-03-04T07:23:37.923Z,47.40
2023-03-04T07:25:39.520Z,46.63
2023-03-04T07:27:41.219Z,52.50
2023-03-04T07:29:42.943Z,50.25
2023-03-04T07:31:44.592Z,53.08
2023-03-04T07:33:46.403Z,45.88
2023-03-04T07:35:49.295Z,51.13
2023-03-04T07:37:51.012Z,55.88
2023-03-04T07:39:52.585Z,47.92
2023-03-04T07:41:54.068Z,47.95
2023-03-04T07:43:56.942Z,56.00
2023-03-04T07:46:00.464Z,67.90
2023-03-04T07:48:02.173Z,46.42
2023-03-04T07:50:04.530Z,49.47
2023-03-04T07:52:07.572Z,50.17
2023-03-04T07:54:09.746Z,46.10
2023-03-04T07:56:13.321Z,52.05
2023-03-04T07:58:14.888Z,49.00
2023-03-04T08:00:17.511Z,52.85
2023-03-04T08:02:19.257Z,46.83
2023-03-04T08:04:20.885Z,48.20
2023-03-04T08:06:23.044Z,49.30
2023-03-04T08:08:26.028Z,54.78
2023-03-04T08:10:27.722Z,52.42
2023-03-04T08:12:29.352Z,56.08
2023-03-04T08:14:30.962Z,47.95
2023-03-04T08:16:32.981Z,56.22
2023-03-04T08:18:34.629Z,44.28
2023-03-04T08:20:36.300Z,58.03
2023-03-04T08:22:39.934Z,45.90
2023-03-04T08:24:42.847Z,60.58
2023-03-04T08:26:46.692Z,53.33
2023-03-04T08:28:48.418Z,47.72
2023-03-04T08:30:53.644Z,56.10
2023-03-04T08:32:55.187Z,52.78
2023-03-04T08:34:56.727Z,54.72
2023-03-04T08:36:58.215Z,52.92
2023-03-04T08:38:59.778Z,55.20
2023-03-04T08:41:03.081Z,61.42
2023-03-04T08:43:04.655Z,52.88
2023-03-04T08:45:07.249Z,59.58
2023-03-04T08:47:08.784Z,56.85
2023-03-04T08:49:11.938Z,51.60
2023-03-04T08:51:14.739Z,53.70
2023-03-04T08:53:17.825Z,62.42
2023-03-04T08:55:19.463Z,71.97
2023-03-04T08:57:22.538Z,54.92
2023-03-04T08:59:24.473Z,53.72
2023-03-04T09:01:26.044Z,59.85
2023-03-04T09:03:27.877Z,63.08
2023-03-04T09:05:29.762Z,61.35
2023-03-04T09:07:31.346Z,53.95
2023-03-04T09:09:33.046Z,57.67
2023-03-04T09:11:35.027Z,60.70
2023-03-04T09:13:38.015Z,58.50
2023-03-04T09:15:44.473Z,60.90
2023-03-04T09:17:46.170Z,64.85
2023-03-04T09:19:47.766Z,73.15
2023-03-04T09:21:49.366Z,61.53
2023-03-04T09:23:50.874Z,58.00
2023-03-04T09:25:52.547Z,64.20
2023-03-04T09:27:54.255Z,72.05
2023-03-04T09:29:57.201Z,62.80
2023-03-04T09:31:58.747Z,61.13
2023-03-04T09:34:00.681Z,67.28
2023-03-04T09:36:02.232Z,69.88
2023-03-04T09:38:03.962Z,62.28
2023-03-04T09:40:07.511Z,62.88
2023-03-04T09:42:15.075Z,58.95
2023-03-04T09:44:23.216Z,64.50
2023-03-04T09:46:32.621Z,65.55
2023-03-04T09:48:40.215Z,55.70
2023-03-04T09:50:51.655Z,57.35
2023-03-04T09:53:04.979Z,62.55
2023-03-04T09:55:20.463Z,53.50
2023-03-04T09:57:28.184Z,63.20
2023-03-04T09:59:35.460Z,61.75
2023-03-04T10:01:45.825Z,61.50
2023-03-04T10:03:51.725Z,58.05
2023-03-04T10:05:56.423Z,59.63
2023-03-04T10:08:00.666Z,61.13
2023-03-04T10:10:04.754Z,67.00
2023-03-04T10:12:11.992Z,58.35
2023-03-04T10:14:31.440Z,66.25
2023-03-04T10:16:39.907Z,51.47
2023-03-04T10:18:50.430Z,61.90
2023-03-04T10:20:56.471Z,60.58
2023-03-04T10:23:05.775Z,64.57
2023-03-04T10:25:19.595Z,53.75
2023-03-04T10:27:21.195Z,57.03
2023-03-04T10:29:24.613Z,56.78
2023-03-04T10:31:32.604Z,58.13
2023-03-04T10:33:36.510Z,56.38
2023-03-04T10:35:41.506Z,62.30
2023-03-04T10:37:45.939Z,57.10
2023-03-04T10:39:49.750Z,58.13
2023-03-04T10:41:59.578Z,61.08
2023-03-04T10:44:03.979Z,64.30
2023-03-04T10:46:05.630Z,52.08
2023-03-04T10:48:19.354Z,60.35
2023-03-04T10:50:26.767Z,57.10
2023-03-04T10:52:32.050Z,61.75
2023-03-04T10:54:40.816Z,56.03
2023-03-04T10:56:52.363Z,53.50
2023-03-04T10:58:53.901Z,64.82
2023-03-04T11:01:05.742Z,63.22
2023-03-04T11:03:23.784Z,54.70
2023-03-04T11:05:26.013Z,60.55
2023-03-04T11:07:27.784Z,56.25
2023-03-04T11:09:31.589Z,64.32
2023-03-04T11:11:41.692Z,51.45
2023-03-04T11:13:50.758Z,52.75
2023-03-04T11:15:56.258Z,53.13
2023-03-04T11:18:03.172Z,55.63
2023-03-04T11:20:14.400Z,47.45
2023-03-04T11:22:18.196Z,50.00
2023-03-04T11:24:28.841Z,49.58
2023-03-04T11:26:36.356Z,48.78
2023-03-04T11:28:45.073Z,54.80
2023-03-04T11:30:50.524Z,45.40
2023-03-04T11:32:55.780Z,47.00
2023-03-04T11:35:01.437Z,47.40
2023-03-04T11:37:08.469Z,47.20
2023-03-04T11:39:20.339Z,45.72
2023-03-04T11:41:30.515Z,50.92
2023-03-04T11:43:36.493Z,48.33
2023-03-04T11:46:02.273Z,43.58
2023-03-04T11:48:13.072Z,42.85
2023-03-04T11:50:29.843Z,34.45
2023-03-04T11:52:51.943Z,41.08
2023-03-04T11:55:06.124Z,36.58
2023-03-04T11:57:12.910Z,42.97
2023-03-04T11:59:29.095Z,38.20
2023-03-04T12:01:42.463Z,38.72
2023-03-04T12:04:00.099Z,41.00
2023-03-04T12:06:10.361Z,42.70
2023-03-04T12:08:28.132Z,36.47
2023-03-04T12:10:38.062Z,40.58
2023-03-04T12:12:54.646Z,36.65
2023-03-04T12:15:07.130Z,36.67
2023-03-04T12:17:34.782Z,34.58
2023-03-04T12:19:50.850Z,36.40
2023-03-04T12:22:19.326Z,38.50
2023-03-04T12:24:57.467Z,34.38
2023-03-04T12:27:09.076Z,31.05
2023-03-04T12:29:20.222Z,28.38
2023-03-04T12:31:34.103Z,29.20
2023-03-04T12:33:48.897Z,33.65
2023-03-04T12:35:56.554Z,27.67
2023-03-04T12:38:19.515Z,26.13
2023-03-04T12:40:34.944Z,26.65
2023-03-04T12:42:46.059Z,31.80
2023-03-04T12:44:58.393Z,31.60
2023-03-04T12:47:17.879Z,27.35
2023-03-04T12:49:37.510Z,28.70
2023-03-04T12:51:49.933Z,29.50
2023-03-04T12:54:01.229Z,39.85
2023-03-04T12:56:10.206Z,53.63
2023-03-04T12:58:16.488Z,42.10
2023-03-04T13:00:30.338Z,34.60
2023-03-04T13:02:52.757Z,30.48
2023-03-04T13:05:03.406Z,33.70
2023-03-04T13:07:16.475Z,30.55
2023-03-04T13:09:24.403Z,34.90
2023-03-04T13:11:54.752Z,33.30
2023-03-04T13:14:02.226Z,30.52
2023-03-04T13:16:06.075Z,33.38
2023-03-04T13:18:34.527Z,31.60
2023-03-04T13:20:39.340Z,29.45
2023-03-04T13:22:53.496Z,31.98
2023-03-04T13:24:57.363Z,29.45
2023-03-04T13:26:59.369Z,26.98
2023-03-04T13:29:32.240Z,29.38
2023-03-04T13:32:01.278Z,30.75
2023-03-04T13:34:04.890Z,29.15
2023-03-04T13:36:26.224Z,30.75
2023-03-04T13:38:33.692Z,30.85
2023-03-04T13:40:36.678Z,32.53
2023-03-04T13:42:40.390Z,27.25
2023-03-04T13:45:00.113Z,34.53
2023-03-04T13:47:09.129Z,31.85
2023-03-04T13:49:22.380Z,32.00
2023-03-04T13:51:29.936Z,36.65
2023-03-04T13:53:43.818Z,33.38
2023-03-04T13:56:12.101Z,33.38
2023-03-04T13:58:20.472Z,34.47
2023-03-04T14:00:22.665Z,36.35
2023-03-04T14:02:25.628Z,35.63
2023-03-04T14:04:32.827Z,34.63
2023-03-04T14:06:34.448Z,35.67
2023-03-04T14:08:36.178Z,29.70
2023-03-04T14:10:37.705Z,43.40
2023-03-04T14:12:44.654Z,38.45
2023-03-04T14:14:50.500Z,31.67
2023-03-04T14:16:56.094Z,29.13
2023-03-04T14:18:59.580Z,28.33
2023-03-04T14:21:02.769Z,29.92
2023-03-04T14:23:22.627Z,25.42
2023-03-04T14:25:26.632Z,30.35
2023-03-04T14:27:29.210Z,26.55
2023-03-04T14:29:31.507Z,27.40
2023-03-04T14:31:35.881Z,33.58
2023-03-04T14:33:40.101Z,31.83
2023-03-04T14:35:47.206Z,28.35
2023-03-04T14:37:57.353Z,27.83
2023-03-04T14:40:00.298Z,31.58
2023-03-04T14:42:08.852Z,29.83
2023-03-04T14:44:19.189Z,28.67
2023-03-04T14:46:22.193Z,34.85
2023-03-04T14:48:27.876Z,30.15
2023-03-04T14:50:37.352Z,32.03
2023-03-04T14:52:41.790Z,28.40
2023-03-04T14:55:00.846Z,33.30
2023-03-04T14:57:21.487Z,33.40
2023-03-04T14:59:31.054Z,26.67
2023-03-04T15:01:34.332Z,31.55
2023-03-04T15:03:36.301Z,26.75
2023-03-04T15:05:37.968Z,27.55
2023-03-04T15:07:41.721Z,27.38
2023-03-04T15:09:50.756Z,27.85
2023-03-04T15:11:57.493Z,31.48
2023-03-04T15:14:00.070Z,30.35
2023-03-04T15:16:01.930Z,32.45
2023-03-04T15:18:04.840Z,28.42
2023-03-04T15:20:21.847Z,25.27
2023-03-04T15:22:23.580Z,23.52
2023-03-04T15:24:25.309Z,35.25
2023-03-04T15:26:28.439Z,27.33
2023-03-04T15:28:33.972Z,29.52
2023-03-04T15:30:36.092Z,33.25
2023-03-04T15:32:37.745Z,27.70
2023-03-04T15:34:39.468Z,26.80
2023-03-04T15:36:42.831Z,30.45
2023-03-04T15:38:47.073Z,33.13
2023-03-04T15:40:48.714Z,32.10
2023-03-04T15:42:51.923Z,27.17
2023-03-04T15:44:53.532Z,36.65
2023-03-04T15:46:55.081Z,29.38
2023-03-04T15:48:56.692Z,31.77
2023-03-04T15:51:00.878Z,33.50
2023-03-04T15:53:04.617Z,33.60
2023-03-04T15:55:07.698Z,33.22
2023-03-04T15:57:18.589Z,31.10
2023-03-04T15:59:21.559Z,30.60
2023-03-04T16:01:26.167Z,36.25
2023-03-04T16:03:28.891Z,34.45
2023-03-04T16:05:31.267Z,36.80
2023-03-04T16:07:33.993Z,42.53
2023-03-04T16:09:35.609Z,32.78
2023-03-04T16:11:40.187Z,30.70
2023-03-04T16:13:42.047Z,31.95
2023-03-04T16:15:45.450Z,34.53
2023-03-04T16:17:47.389Z,31.88
2023-03-04T16:19:48.986Z,32.28
2023-03-04T16:21:50.561Z,37.58
2023-03-04T16:23:53.133Z,29.38
2023-03-04T16:25:56.410Z,42.85
2023-03-04T16:27:58.385Z,32.70
2023-03-04T16:29:59.927Z,34.00
2023-03-04T16:32:02.945Z,36.97
2023-03-04T16:34:04.531Z,36.53
2023-03-04T16:36:14.378Z,36.42
2023-03-04T16:38:23.087Z,31.55
2023-03-04T16:40:27.112Z,37.50
2023-03-04T16:42:28.634Z,36.80
2023-03-04T16:44:30.171Z,36.35
2023-03-04T16:46:34.653Z,36.60
2023-03-04T16:48:37.910Z,38.20
2023-03-04T16:50:40.042Z,33.90
2023-03-04T16:52:44.558Z,37.40
2023-03-04T16:54:46.756Z,33.70
2023-03-04T16:56:48.354Z,36.85
2023-03-04T16:58:50.412Z,41.38
2023-03-04T17:00:51.939Z,37.25
2023-03-04T17:02:55.847Z,40.20
2023-03-04T17:04:58.965Z,45.03
2023-03-04T17:07:00.537Z,40.08
2023-03-04T17:09:02.132Z,37.13
2023-03-04T17:11:03.787Z,34.90
2023-03-04T17:13:05.816Z,32.10
2023-03-04T17:15:08.380Z,36.72
2023-03-04T17:17:10.288Z,31.20
2023-03-04T17:19:11.838Z,31.33
2023-03-04T17:21:18.407Z,37.38
2023-03-04T17:23:20.072Z,33.10
2023-03-04T17:25:21.742Z,36.03
2023-03-04T17:27:23.750Z,33.33
2023-03-04T17:29:26.002Z,35.45
2023-03-04T17:31:27.654Z,36.95
2023-03-04T17:33:31.287Z,32.85
2023-03-04T17:35:32.814Z,31.70
2023-03-04T17:37:36.615Z,41.83
2023-03-04T17:39:38.340Z,39.75
2023-03-04T17:41:39.999Z,41.13
2023-03-04T17:43:42.972Z,35.92
2023-03-04T17:45:44.581Z,37.22
2023-03-04T17:47:51.825Z,30.05
2023-03-04T17:49:53.415Z,32.97
2023-03-04T17:51:55.159Z,42.92
2023-03-04T17:53:58.228Z,35.92
2023-03-04T17:56:01.764Z,36.55
2023-03-04T17:58:03.382Z,45.70
2023-03-04T18:00:06.833Z,41.08
2023-03-04T18:02:13.578Z,36.53
2023-03-04T18:04:15.703Z,38.75
2023-03-04T18:06:17.446Z,32.45
2023-03-04T18:08:19.168Z,33.60
2023-03-04T18:10:22.104Z,38.13
2023-03-04T18:12:23.630Z,38.67
2023-03-04T18:14:25.347Z,36.05
2023-03-04T18:16:27.218Z,35.33
2023-03-04T18:18:28.836Z,35.92
2023-03-04T18:20:30.444Z,36.53
2023-03-04T18:22:32.067Z,33.90
2023-03-04T18:24:33.652Z,33.80
2023-03-04T18:26:36.703Z,38.42
2023-03-04T18:28:38.572Z,39.50
2023-03-04T18:30:40.272Z,38.42
2023-03-04T18:32:51.337Z,37.13
2023-03-04T18:34:53.667Z,34.38
2023-03-04T18:36:55.379Z,38.20
2023-03-04T18:38:57.056Z,36.33
2023-03-04T18:40:59.363Z,38.80
2023-03-04T18:43:02.247Z,38.28
2023-03-04T18:45:04.669Z,33.00
2023-03-04T18:47:06.859Z,42.08
2023-03-04T18:49:09.136Z,38.30
2023-03-04T18:51:10.688Z,38.80
2023-03-04T18:53:12.203Z,38.28
2023-03-04T18:55:14.193Z,41.40
2023-03-04T18:57:15.749Z,37.55
2023-03-04T18:59:22.001Z,35.03
2023-03-04T19:01:24.932Z,40.53
2023-03-04T19:03:26.597Z,33.05
2023-03-04T19:05:31.799Z,32.22
2023-03-04T19:07:33.520Z,35.60
2023-03-04T19:09:35.379Z,37.00
2023-03-04T19:11:37.364Z,37.17
2023-03-04T19:13:38.900Z,42.78
2023-03-04T19:15:41.786Z,42.97
2023-03-04T19:17:44.232Z,42.83
2023-03-04T19:19:45.808Z,56.78
2023-03-04T19:21:47.482Z,41.05
2023-03-04T19:23:51.923Z,40.88
2023-03-04T19:25:53.512Z,34.50
2023-03-04T19:27:55.107Z,40.85
2023-03-04T19:29:56.774Z,40.90
2023-03-04T19:31:59.823Z,36.97
2023-03-04T19:34:01.376Z,39.53
2023-03-04T19:36:04.428Z,38.35
2023-03-04T19:38:06.020Z,44.20
2023-03-04T19:40:08.760Z,36.95
2023-03-04T19:42:10.552Z,40.50
2023-03-04T19:44:12.130Z,42.33
2023-03-04T19:46:14.369Z,43.92
2023-03-04T19:48:17.444Z,37.13
2023-03-04T19:50:19.192Z,36.50
2023-03-04T19:52:20.915Z,38.20
2023-03-04T19:54:22.685Z,43.50
2023-03-04T19:56:24.506Z,43.10
2023-03-04T19:58:26.079Z,33.80
2023-03-04T20:00:27.819Z,34.50
2023-03-04T20:02:29.506Z,39.88
2023-03-04T20:04:32.617Z,40.50
2023-03-04T20:06:35.509Z,39.38
2023-03-04T20:08:38.448Z,38.75
2023-03-04T20:10:40.154Z,35.17
2023-03-04T20:12:41.775Z,37.60
2023-03-04T20:14:43.282Z,35.08
2023-03-04T20:16:44.896Z,34.70
2023-03-04T20:18:46.662Z,34.53
2023-03-04T20:20:49.547Z,37.25
2023-03-04T20:22:51.096Z,36.70
2023-03-04T20:24:52.778Z,32.35
2023-03-04T20:26:54.377Z,40.13
2023-03-04T20:28:55.899Z,41.65
2023-03-04T20:31:10.621Z,35.90
2023-03-04T20:33:12.187Z,38.53
2023-03-04T20:35:13.740Z,38.30
2023-03-04T20:37:16.936Z,33.40
2023-03-04T20:39:28.725Z,37.08
2023-03-04T20:41:31.983Z,32.20
2023-03-04T20:43:33.600Z,31.85
2023-03-04T20:45:35.886Z,37.03
2023-03-04T20:47:39.533Z,31.70
2023-03-04T20:49:41.337Z,37.15
2023-03-04T20:51:43.242Z,30.83
2023-03-04T20:53:46.463Z,37.65
2023-03-04T20:55:48.065Z,42.47
2023-03-04T20:57:49.646Z,35.50
2023-03-04T20:59:51.288Z,34.03
2023-03-04T21:01:53.638Z,37.58
2023-03-04T21:03:55.534Z,36.08
2023-03-04T21:06:02.706Z,35.05
2023-03-04T21:08:04.723Z,31.55
2023-03-04T21:10:08.765Z,37.50
2023-03-04T21:12:10.685Z,32.05
2023-03-04T21:14:14.056Z,34.38
2023-03-04T21:16:17.138Z,34.00
2023-03-04T21:18:19.134Z,36.35
2023-03-04T21:20:20.991Z,35.03
2023-03-04T21:22:22.674Z,41.05
2023-03-04T21:24:26.009Z,38.88
2023-03-04T21:26:29.177Z,34.05
2023-03-04T21:28:30.735Z,39.50
2023-03-04T21:30:32.261Z,32.50
2023-03-04T21:32:34.132Z,39.33
2023-03-04T21:34:39.567Z,31.02
2023-03-04T21:36:41.502Z,32.60
2023-03-04T21:38:44.527Z,33.67
2023-03-04T21:40:46.134Z,34.58
2023-03-04T21:42:49.045Z,35.40
2023-03-04T21:44:51.835Z,35.80
2023-03-04T21:46:53.979Z,32.33
2023-03-04T21:48:55.652Z,38.95
2023-03-04T21:51:01.689Z,36.85
2023-03-04T21:53:03.306Z,35.60
2023-03-04T21:55:05.448Z,33.22
2023-03-04T21:57:07.090Z,37.20
2023-03-04T21:59:11.887Z,35.65
2023-03-04T22:01:14.642Z,36.40
2023-03-04T22:03:16.453Z,37.92
2023-03-04T22:05:19.175Z,35.28
2023-03-04T22:07:20.781Z,39.72
2023-03-04T22:09:22.376Z,34.17
2023-03-04T22:11:24.304Z,38.60
2023-03-04T22:13:25.846Z,33.15
2023-03-04T22:15:28.937Z,37.40
2023-03-04T22:17:30.549Z,34.65
2023-03-04T22:19:32.767Z,31.10
2023-03-04T22:21:34.380Z,40.03
2023-03-04T22:23:36.212Z,38.95
2023-03-04T22:25:39.737Z,31.58
2023-03-04T22:27:41.373Z,35.75
2023-03-04T22:29:46.003Z,35.40
2023-03-04T22:31:48.983Z,34.67
2023-03-04T22:33:50.672Z,29.85
2023-03-04T22:35:52.751Z,30.02
2023-03-04T22:37:54.590Z,38.28
2023-03-04T22:39:57.136Z,36.63
2023-03-04T22:41:58.676Z,40.95
2023-03-04T22:44:00.338Z,30.80
2023-03-04T22:46:11.966Z,33.80
2023-03-04T22:48:14.945Z,34.45
2023-03-04T22:50:17.427Z,31.15
2023-03-04T22:52:19.124Z,34.97
2023-03-04T22:54:20.662Z,31.75
2023-03-04T22:56:22.427Z,31.92
2023-03-04T22:58:24.120Z,33.53
2023-03-04T23:00:27.842Z,34.33
2023-03-04T23:02:29.542Z,30.88
2023-03-04T23:04:32.742Z,29.00
2023-03-04T23:06:34.832Z,37.05
2023-03-04T23:08:38.432Z,38.85
2023-03-04T23:10:42.180Z,32.45
2023-03-04T23:12:43.901Z,32.28
2023-03-04T23:14:45.460Z,39.50
2023-03-04T23:16:47.145Z,34.63
2023-03-04T23:18:49.225Z,30.15
2023-03-04T23:20:52.119Z,35.92
2023-03-04T23:22:53.702Z,34.70
2023-03-04T23:24:55.267Z,37.88
2023-03-04T23:26:57.050Z,38.30
2023-03-04T23:29:00.625Z,35.00
2023-03-04T23:31:04.259Z,28.77
2023-03-04T23:33:07.079Z,30.80
2023-03-04T23:35:09.296Z,30.63
2023-03-04T23:37:12.269Z,30.70
2023-03-04T23:39:13.838Z,30.35
2023-03-04T23:41:17.854Z,36.45
2023-03-04T23:43:19.381Z,33.60
2023-03-04T23:45:20.951Z,33.80
2023-03-04T23:47:22.564Z,32.75
2023-03-04T23:49:24.322Z,29.17
2023-03-04T23:51:28.255Z,29.55
2023-03-04T23:53:31.211Z,31.48
2023-03-04T23:55:32.694Z,37.35
2023-03-04T23:57:34.220Z,34.33
2023-03-04T23:59:37.651Z,30.65
